Terminal Aerodrome Forecast
Issued by NWS

Home | Current Version | Previous Version | Text Only | Print | Product List | Glossary On
Versions: 1 2 3 4 5 6 7 8 9 10 11 12 13 14 15
000
FTUS43 KBIS 231700
TAFDIK
TAF
KDIK 231735Z 2318/2418 18017G24KT P6SM VCSH BKN100
     FM231900 28020G30KT P6SM OVC050
     FM240100 25014KT P6SM SCT090
     FM241300 28019G27KT P6SM SKC=

USA.gov is the U.S. government's official web portal to all federal, state and local government web resources and services.